sensor_id;sensor_type;location;lat;lon;timestamp;temperature;humidity
19050;DHT22;9657;45.940;12.840;2023-06-10T00:01:58;25.60;63.60
19050;DHT22;9657;45.940;12.840;2023-06-10T00:04:25;25.60;63.60
19050;DHT22;9657;45.940;12.840;2023-06-10T00:06:52;25.60;63.60
19050;DHT22;9657;45.940;12.840;2023-06-10T00:09:19;25.60;63.60
19050;DHT22;9657;45.940;12.840;2023-06-10T00:11:47;25.60;63.60
19050;DHT22;9657;45.940;12.840;2023-06-10T00:14:14;25.60;63.60
19050;DHT22;9657;45.940;12.840;2023-06-10T00:16:42;25.60;63.60
19050;DHT22;9657;45.940;12.840;2023-06-10T00:19:10;25.60;63.60
19050;DHT22;9657;45.940;12.840;2023-06-10T00:21:39;25.60;63.60
19050;DHT22;9657;45.940;12.840;2023-06-10T00:24:07;25.60;63.60
19050;DHT22;9657;45.940;12.840;2023-06-10T00:26:37;25.60;63.60
19050;DHT22;9657;45.940;12.840;2023-06-10T00:29:04;25.60;63.60
19050;DHT22;9657;45.940;12.840;2023-06-10T00:31:31;25.60;63.60
19050;DHT22;9657;45.940;12.840;2023-06-10T00:34:00;25.60;63.60
19050;DHT22;9657;45.940;12.840;2023-06-10T00:36:28;25.60;63.60
19050;DHT22;9657;45.940;12.840;2023-06-10T00:38:55;25.60;63.60
19050;DHT22;9657;45.940;12.840;2023-06-10T00:41:22;25.60;63.60
19050;DHT22;9657;45.940;12.840;2023-06-10T00:43:49;25.50;63.50
19050;DHT22;9657;45.940;12.840;2023-06-10T00:46:16;25.60;63.60
19050;DHT22;9657;45.940;12.840;2023-06-10T00:48:45;25.50;63.50
19050;DHT22;9657;45.940;12.840;2023-06-10T00:51:14;25.60;63.60
19050;DHT22;9657;45.940;12.840;2023-06-10T00:53:42;25.60;63.60
19050;DHT22;9657;45.940;12.840;2023-06-10T00:56:10;25.50;63.50
19050;DHT22;9657;45.940;12.840;2023-06-10T00:58:37;25.60;63.60
19050;DHT22;9657;45.940;12.840;2023-06-10T01:03:40;25.60;63.60
19050;DHT22;9657;45.940;12.840;2023-06-10T01:06:25;25.50;63.60
19050;DHT22;9657;45.940;12.840;2023-06-10T01:08:59;25.50;63.50
19050;DHT22;9657;45.940;12.840;2023-06-10T01:11:33;25.50;63.60
19050;DHT22;9657;45.940;12.840;2023-06-10T01:14:01;25.50;63.60
19050;DHT22;9657;45.940;12.840;2023-06-10T01:16:29;25.50;63.60
19050;DHT22;9657;45.940;12.840;2023-06-10T01:18:56;25.50;63.50
19050;DHT22;9657;45.940;12.840;2023-06-10T01:21:25;25.50;63.50
19050;DHT22;9657;45.940;12.840;2023-06-10T01:23:53;25.50;63.50
19050;DHT22;9657;45.940;12.840;2023-06-10T01:26:23;25.50;63.50
19050;DHT22;9657;45.940;12.840;2023-06-10T01:28:54;25.50;63.50
19050;DHT22;9657;45.940;12.840;2023-06-10T01:31:31;25.50;63.50
19050;DHT22;9657;45.940;12.840;2023-06-10T01:34:00;25.50;63.60
19050;DHT22;9657;45.940;12.840;2023-06-10T01:36:29;25.50;63.60
19050;DHT22;9657;45.940;12.840;2023-06-10T01:39:00;25.50;63.60
19050;DHT22;9657;45.940;12.840;2023-06-10T01:41:27;25.50;63.60
19050;DHT22;9657;45.940;12.840;2023-06-10T01:43:55;25.50;63.60
19050;DHT22;9657;45.940;12.840;2023-06-10T01:46:22;25.50;63.50
19050;DHT22;9657;45.940;12.840;2023-06-10T01:48:49;25.50;63.60
19050;DHT22;9657;45.940;12.840;2023-06-10T01:51:16;25.50;63.60
19050;DHT22;9657;45.940;12.840;2023-06-10T01:53:44;25.50;63.60
19050;DHT22;9657;45.940;12.840;2023-06-10T01:56:11;25.50;63.60
19050;DHT22;9657;45.940;12.840;2023-06-10T01:58:44;25.50;63.60
19050;DHT22;9657;45.940;12.840;2023-06-10T02:01:11;25.50;63.60
19050;DHT22;9657;45.940;12.840;2023-06-10T02:03:38;25.50;63.60
19050;DHT22;9657;45.940;12.840;2023-06-10T02:06:06;25.50;63.60
19050;DHT22;9657;45.940;12.840;2023-06-10T02:08:33;25.50;63.60
19050;DHT22;9657;45.940;12.840;2023-06-10T02:11:01;25.50;63.60
19050;DHT22;9657;45.940;12.840;2023-06-10T02:13:28;25.50;63.60
19050;DHT22;9657;45.940;12.840;2023-06-10T02:15:55;25.50;63.60
19050;DHT22;9657;45.940;12.840;2023-06-10T02:18:22;25.50;63.60
19050;DHT22;9657;45.940;12.840;2023-06-10T02:20:49;25.50;63.60
19050;DHT22;9657;45.940;12.840;2023-06-10T02:23:16;25.50;63.60
19050;DHT22;9657;45.940;12.840;2023-06-10T02:25:43;25.50;63.50
19050;DHT22;9657;45.940;12.840;2023-06-10T02:28:12;25.50;63.60
19050;DHT22;9657;45.940;12.840;2023-06-10T02:30:40;25.50;63.60
19050;DHT22;9657;45.940;12.840;2023-06-10T02:33:07;25.50;63.60
19050;DHT22;9657;45.940;12.840;2023-06-10T02:35:35;25.50;63.60
19050;DHT22;9657;45.940;12.840;2023-06-10T02:38:03;25.50;63.60
19050;DHT22;9657;45.940;12.840;2023-06-10T02:40:30;25.50;63.60
19050;DHT22;9657;45.940;12.840;2023-06-10T02:42:57;25.50;63.60
19050;DHT22;9657;45.940;12.840;2023-06-10T02:45:26;25.50;63.60
19050;DHT22;9657;45.940;12.840;2023-06-10T02:47:53;25.40;63.50
19050;DHT22;9657;45.940;12.840;2023-06-10T02:50:20;25.40;63.50
19050;DHT22;9657;45.940;12.840;2023-06-10T02:52:48;25.50;63.60
19050;DHT22;9657;45.940;12.840;2023-06-10T02:55:15;25.40;63.50
19050;DHT22;9657;45.940;12.840;2023-06-10T02:57:42;25.40;63.40
19050;DHT22;9657;45.940;12.840;2023-06-10T03:00:10;25.40;63.40
19050;DHT22;9657;45.940;12.840;2023-06-10T03:02:41;25.40;63.50
19050;DHT22;9657;45.940;12.840;2023-06-10T03:05:08;25.40;63.40
19050;DHT22;9657;45.940;12.840;2023-06-10T03:07:36;25.40;63.40
19050;DHT22;9657;45.940;12.840;2023-06-10T03:10:05;25.40;63.40
19050;DHT22;9657;45.940;12.840;2023-06-10T03:12:32;25.40;63.40
19050;DHT22;9657;45.940;12.840;2023-06-10T03:14:59;25.40;63.40
19050;DHT22;9657;45.940;12.840;2023-06-10T03:17:26;25.40;63.40
19050;DHT22;9657;45.940;12.840;2023-06-10T03:19:54;25.40;63.40
19050;DHT22;9657;45.940;12.840;2023-06-10T03:22:21;25.40;63.40
19050;DHT22;9657;45.940;12.840;2023-06-10T03:24:48;25.40;63.40
19050;DHT22;9657;45.940;12.840;2023-06-10T03:27:16;25.40;63.50
19050;DHT22;9657;45.940;12.840;2023-06-10T03:29:44;25.40;63.40
19050;DHT22;9657;45.940;12.840;2023-06-10T03:32:11;25.40;63.40
19050;DHT22;9657;45.940;12.840;2023-06-10T03:34:38;25.40;63.40
19050;DHT22;9657;45.940;12.840;2023-06-10T03:37:06;25.40;63.40
19050;DHT22;9657;45.940;12.840;2023-06-10T03:39:33;25.40;63.50
19050;DHT22;9657;45.940;12.840;2023-06-10T03:42:00;25.40;63.40
19050;DHT22;9657;45.940;12.840;2023-06-10T03:44:27;25.40;63.40
19050;DHT22;9657;45.940;12.840;2023-06-10T03:46:54;25.40;63.40
19050;DHT22;9657;45.940;12.840;2023-06-10T03:49:23;25.40;63.40
19050;DHT22;9657;45.940;12.840;2023-06-10T03:51:52;25.40;63.40
19050;DHT22;9657;45.940;12.840;2023-06-10T03:54:21;25.40;63.30
19050;DHT22;9657;45.940;12.840;2023-06-10T03:56:48;25.40;63.30
19050;DHT22;9657;45.940;12.840;2023-06-10T03:59:16;25.30;63.20
19050;DHT22;9657;45.940;12.840;2023-06-10T04:01:43;25.40;63.30
19050;DHT22;9657;45.940;12.840;2023-06-10T04:04:14;25.40;63.30
19050;DHT22;9657;45.940;12.840;2023-06-10T04:06:42;25.40;63.30
19050;DHT22;9657;45.940;12.840;2023-06-10T04:09:10;25.30;63.20
19050;DHT22;9657;45.940;12.840;2023-06-10T04:11:38;25.30;63.10
19050;DHT22;9657;45.940;12.840;2023-06-10T04:14:05;25.30;63.10
19050;DHT22;9657;45.940;12.840;2023-06-10T04:16:33;25.30;63.10
19050;DHT22;9657;45.940;12.840;2023-06-10T04:19:01;25.30;63.10
19050;DHT22;9657;45.940;12.840;2023-06-10T04:21:28;25.30;63.10
19050;DHT22;9657;45.940;12.840;2023-06-10T04:23:55;25.30;63.10
19050;DHT22;9657;45.940;12.840;2023-06-10T04:26:22;25.30;63.10
19050;DHT22;9657;45.940;12.840;2023-06-10T04:28:50;25.30;63.10
19050;DHT22;9657;45.940;12.840;2023-06-10T04:31:18;25.30;63.10
19050;DHT22;9657;45.940;12.840;2023-06-10T04:33:45;25.30;63.00
19050;DHT22;9657;45.940;12.840;2023-06-10T04:36:12;25.30;63.00
19050;DHT22;9657;45.940;12.840;2023-06-10T04:38:40;25.30;63.00
19050;DHT22;9657;45.940;12.840;2023-06-10T04:41:07;25.30;63.00
19050;DHT22;9657;45.940;12.840;2023-06-10T04:43:34;25.30;63.00
19050;DHT22;9657;45.940;12.840;2023-06-10T04:46:02;25.30;63.80
19050;DHT22;9657;45.940;12.840;2023-06-10T04:48:30;25.30;63.00
19050;DHT22;9657;45.940;12.840;2023-06-10T04:50:58;25.30;63.00
19050;DHT22;9657;45.940;12.840;2023-06-10T04:53:25;25.30;63.00
19050;DHT22;9657;45.940;12.840;2023-06-10T04:55:54;25.30;63.00
19050;DHT22;9657;45.940;12.840;2023-06-10T04:58:21;25.30;63.00
19050;DHT22;9657;45.940;12.840;2023-06-10T05:00:48;25.30;63.00
19050;DHT22;9657;45.940;12.840;2023-06-10T05:03:17;25.30;63.00
19050;DHT22;9657;45.940;12.840;2023-06-10T05:05:44;25.30;63.00
19050;DHT22;9657;45.940;12.840;2023-06-10T05:08:11;25.30;63.00
19050;DHT22;9657;45.940;12.840;2023-06-10T05:10:38;25.30;63.00
19050;DHT22;9657;45.940;12.840;2023-06-10T05:13:05;25.30;63.00
19050;DHT22;9657;45.940;12.840;2023-06-10T05:15:32;25.30;63.00
19050;DHT22;9657;45.940;12.840;2023-06-10T05:17:59;25.30;63.00
19050;DHT22;9657;45.940;12.840;2023-06-10T05:20:29;25.30;63.00
19050;DHT22;9657;45.940;12.840;2023-06-10T05:22:56;25.30;63.00
19050;DHT22;9657;45.940;12.840;2023-06-10T05:25:25;25.30;63.00
19050;DHT22;9657;45.940;12.840;2023-06-10T05:27:52;25.30;63.70
19050;DHT22;9657;45.940;12.840;2023-06-10T05:30:19;25.30;63.00
19050;DHT22;9657;45.940;12.840;2023-06-10T05:32:47;25.30;63.00
19050;DHT22;9657;45.940;12.840;2023-06-10T05:35:14;25.30;63.00
19050;DHT22;9657;45.940;12.840;2023-06-10T05:37:43;25.30;63.00
19050;DHT22;9657;45.940;12.840;2023-06-10T05:40:10;25.30;63.00
19050;DHT22;9657;45.940;12.840;2023-06-10T05:42:38;25.30;63.00
19050;DHT22;9657;45.940;12.840;2023-06-10T05:45:05;25.30;63.00
19050;DHT22;9657;45.940;12.840;2023-06-10T05:47:33;25.30;63.00
19050;DHT22;9657;45.940;12.840;2023-06-10T05:50:00;25.30;63.00
19050;DHT22;9657;45.940;12.840;2023-06-10T05:52:27;25.30;63.00
19050;DHT22;9657;45.940;12.840;2023-06-10T05:54:55;25.30;63.00
19050;DHT22;9657;45.940;12.840;2023-06-10T05:57:22;25.30;63.00
19050;DHT22;9657;45.940;12.840;2023-06-10T05:59:49;25.30;63.00
19050;DHT22;9657;45.940;12.840;2023-06-10T06:02:16;25.30;63.00
19050;DHT22;9657;45.940;12.840;2023-06-10T06:04:43;25.30;63.00
19050;DHT22;9657;45.940;12.840;2023-06-10T06:07:10;25.30;63.00
19050;DHT22;9657;45.940;12.840;2023-06-10T06:09:37;25.30;63.00
19050;DHT22;9657;45.940;12.840;2023-06-10T06:12:08;25.30;63.00
19050;DHT22;9657;45.940;12.840;2023-06-10T06:14:37;25.30;63.00
19050;DHT22;9657;45.940;12.840;2023-06-10T06:17:05;25.30;62.90
19050;DHT22;9657;45.940;12.840;2023-06-10T06:19:32;25.30;63.00
19050;DHT22;9657;45.940;12.840;2023-06-10T06:21:59;25.30;63.00
19050;DHT22;9657;45.940;12.840;2023-06-10T06:24:26;25.30;63.00
19050;DHT22;9657;45.940;12.840;2023-06-10T06:26:53;25.30;63.00
19050;DHT22;9657;45.940;12.840;2023-06-10T06:29:22;25.30;63.00
19050;DHT22;9657;45.940;12.840;2023-06-10T06:31:49;25.30;62.90
19050;DHT22;9657;45.940;12.840;2023-06-10T06:34:16;25.30;63.00
19050;DHT22;9657;45.940;12.840;2023-06-10T06:36:43;25.30;63.70
19050;DHT22;9657;45.940;12.840;2023-06-10T06:39:10;25.30;63.00
19050;DHT22;9657;45.940;12.840;2023-06-10T06:41:37;25.30;63.00
19050;DHT22;9657;45.940;12.840;2023-06-10T06:44:04;25.30;63.00
19050;DHT22;9657;45.940;12.840;2023-06-10T06:46:32;25.30;63.00
19050;DHT22;9657;45.940;12.840;2023-06-10T06:48:59;25.30;63.00
19050;DHT22;9657;45.940;12.840;2023-06-10T06:51:26;25.30;63.00
19050;DHT22;9657;45.940;12.840;2023-06-10T06:53:53;25.30;63.00
19050;DHT22;9657;45.940;12.840;2023-06-10T06:56:24;25.30;63.00
19050;DHT22;9657;45.940;12.840;2023-06-10T06:58:52;25.30;63.00
19050;DHT22;9657;45.940;12.840;2023-06-10T07:01:19;25.30;63.00
19050;DHT22;9657;45.940;12.840;2023-06-10T07:03:48;25.30;62.90
19050;DHT22;9657;45.940;12.840;2023-06-10T07:06:15;25.30;63.00
19050;DHT22;9657;45.940;12.840;2023-06-10T07:08:42;25.30;63.00
19050;DHT22;9657;45.940;12.840;2023-06-10T07:11:09;25.30;63.00
19050;DHT22;9657;45.940;12.840;2023-06-10T07:13:36;25.30;63.00
19050;DHT22;9657;45.940;12.840;2023-06-10T07:16:03;25.30;63.00
19050;DHT22;9657;45.940;12.840;2023-06-10T07:18:30;25.30;63.00
19050;DHT22;9657;45.940;12.840;2023-06-10T07:20:59;25.30;63.00
19050;DHT22;9657;45.940;12.840;2023-06-10T07:23:26;25.30;63.00
19050;DHT22;9657;45.940;12.840;2023-06-10T07:25:53;25.40;63.00
19050;DHT22;9657;45.940;12.840;2023-06-10T07:28:20;25.40;63.00
19050;DHT22;9657;45.940;12.840;2023-06-10T07:30:47;25.30;63.00
19050;DHT22;9657;45.940;12.840;2023-06-10T07:33:14;25.40;63.00
19050;DHT22;9657;45.940;12.840;2023-06-10T07:35:41;25.30;62.90
19050;DHT22;9657;45.940;12.840;2023-06-10T07:38:10;25.30;62.90
19050;DHT22;9657;45.940;12.840;2023-06-10T07:40:37;25.40;63.00
19050;DHT22;9657;45.940;12.840;2023-06-10T07:43:04;25.30;62.90
19050;DHT22;9657;45.940;12.840;2023-06-10T07:45:31;25.30;63.00
19050;DHT22;9657;45.940;12.840;2023-06-10T07:47:58;25.40;63.00
19050;DHT22;9657;45.940;12.840;2023-06-10T07:50:25;25.40;63.00
19050;DHT22;9657;45.940;12.840;2023-06-10T07:52:52;25.40;63.00
19050;DHT22;9657;45.940;12.840;2023-06-10T07:55:21;25.40;63.00
19050;DHT22;9657;45.940;12.840;2023-06-10T07:57:48;25.40;63.00
19050;DHT22;9657;45.940;12.840;2023-06-10T08:00:15;25.40;63.00
19050;DHT22;9657;45.940;12.840;2023-06-10T08:02:43;25.40;62.90
19050;DHT22;9657;45.940;12.840;2023-06-10T08:05:10;25.40;63.00
19050;DHT22;9657;45.940;12.840;2023-06-10T08:07:37;25.40;63.00
19050;DHT22;9657;45.940;12.840;2023-06-10T08:10:05;25.40;62.90
19050;DHT22;9657;45.940;12.840;2023-06-10T08:12:34;25.40;63.00
19050;DHT22;9657;45.940;12.840;2023-06-10T08:15:02;25.40;62.90
19050;DHT22;9657;45.940;12.840;2023-06-10T08:17:30;25.40;62.90
19050;DHT22;9657;45.940;12.840;2023-06-10T08:19:57;25.40;62.90
19050;DHT22;9657;45.940;12.840;2023-06-10T08:22:24;25.40;62.90
19050;DHT22;9657;45.940;12.840;2023-06-10T08:24:51;25.40;62.90
19050;DHT22;9657;45.940;12.840;2023-06-10T08:27:18;25.40;62.90
19050;DHT22;9657;45.940;12.840;2023-06-10T08:29:46;25.40;62.90
19050;DHT22;9657;45.940;12.840;2023-06-10T08:32:14;25.40;62.90
19050;DHT22;9657;45.940;12.840;2023-06-10T08:34:41;25.40;62.90
19050;DHT22;9657;45.940;12.840;2023-06-10T08:37:08;25.40;62.90
19050;DHT22;9657;45.940;12.840;2023-06-10T08:39:35;25.50;63.00
19050;DHT22;9657;45.940;12.840;2023-06-10T08:42:10;25.50;62.90
19050;DHT22;9657;45.940;12.840;2023-06-10T08:44:38;25.50;63.00
19050;DHT22;9657;45.940;12.840;2023-06-10T08:47:13;25.40;62.80
19050;DHT22;9657;45.940;12.840;2023-06-10T08:49:43;25.50;62.90
19050;DHT22;9657;45.940;12.840;2023-06-10T08:52:14;25.50;62.80
19050;DHT22;9657;45.940;12.840;2023-06-10T08:54:43;25.50;62.80
19050;DHT22;9657;45.940;12.840;2023-06-10T08:57:13;25.50;62.80
19050;DHT22;9657;45.940;12.840;2023-06-10T08:59:41;25.50;62.80
19050;DHT22;9657;45.940;12.840;2023-06-10T09:02:10;25.50;62.70
19050;DHT22;9657;45.940;12.840;2023-06-10T09:04:37;25.50;62.70
19050;DHT22;9657;45.940;12.840;2023-06-10T09:07:05;25.50;62.70
19050;DHT22;9657;45.940;12.840;2023-06-10T09:09:35;25.50;62.70
19050;DHT22;9657;45.940;12.840;2023-06-10T09:12:03;25.50;62.70
19050;DHT22;9657;45.940;12.840;2023-06-10T09:14:30;25.50;62.70
19050;DHT22;9657;45.940;12.840;2023-06-10T09:16:57;25.50;62.70
19050;DHT22;9657;45.940;12.840;2023-06-10T09:19:27;25.50;62.70
19050;DHT22;9657;45.940;12.840;2023-06-10T09:21:55;25.60;62.70
19050;DHT22;9657;45.940;12.840;2023-06-10T09:24:22;25.60;62.60
19050;DHT22;9657;45.940;12.840;2023-06-10T09:26:50;25.60;62.60
19050;DHT22;9657;45.940;12.840;2023-06-10T09:29:17;25.60;62.60
19050;DHT22;9657;45.940;12.840;2023-06-10T09:31:44;25.60;62.60
19050;DHT22;9657;45.940;12.840;2023-06-10T09:34:13;25.60;62.50
19050;DHT22;9657;45.940;12.840;2023-06-10T09:36:42;25.70;62.50
19050;DHT22;9657;45.940;12.840;2023-06-10T09:39:14;25.60;62.40
19050;DHT22;9657;45.940;12.840;2023-06-10T09:41:42;25.60;62.30
19050;DHT22;9657;45.940;12.840;2023-06-10T09:44:12;25.60;62.30
19050;DHT22;9657;45.940;12.840;2023-06-10T09:46:40;25.70;62.40
19050;DHT22;9657;45.940;12.840;2023-06-10T09:49:07;25.70;62.40
19050;DHT22;9657;45.940;12.840;2023-06-10T09:51:34;25.70;63.30
19050;DHT22;9657;45.940;12.840;2023-06-10T09:54:03;25.70;62.40
19050;DHT22;9657;45.940;12.840;2023-06-10T09:56:34;25.70;62.40
19050;DHT22;9657;45.940;12.840;2023-06-10T09:59:02;25.70;62.20
19050;DHT22;9657;45.940;12.840;2023-06-10T10:01:32;25.70;62.30
19050;DHT22;9657;45.940;12.840;2023-06-10T10:03:59;25.70;62.10
19050;DHT22;9657;45.940;12.840;2023-06-10T10:06:27;25.80;62.10
19050;DHT22;9657;45.940;12.840;2023-06-10T10:08:55;25.80;62.00
19050;DHT22;9657;45.940;12.840;2023-06-10T10:11:23;25.80;62.00
19050;DHT22;9657;45.940;12.840;2023-06-10T10:13:52;25.80;61.80
19050;DHT22;9657;45.940;12.840;2023-06-10T10:16:21;25.80;61.80
19050;DHT22;9657;45.940;12.840;2023-06-10T10:18:52;25.80;61.70
19050;DHT22;9657;45.940;12.840;2023-06-10T10:21:23;25.80;61.70
19050;DHT22;9657;45.940;12.840;2023-06-10T10:23:55;25.80;61.60
19050;DHT22;9657;45.940;12.840;2023-06-10T10:26:26;25.80;61.60
19050;DHT22;9657;45.940;12.840;2023-06-10T10:29:07;25.80;61.50
19050;DHT22;9657;45.940;12.840;2023-06-10T10:31:37;25.90;61.50
19050;DHT22;9657;45.940;12.840;2023-06-10T10:34:07;25.90;61.50
19050;DHT22;9657;45.940;12.840;2023-06-10T10:36:36;25.90;61.50
19050;DHT22;9657;45.940;12.840;2023-06-10T10:39:04;25.90;61.50
19050;DHT22;9657;45.940;12.840;2023-06-10T10:41:34;25.90;61.40
19050;DHT22;9657;45.940;12.840;2023-06-10T10:44:03;25.90;61.40
19050;DHT22;9657;45.940;12.840;2023-06-10T10:46:42;25.90;61.30
19050;DHT22;9657;45.940;12.840;2023-06-10T10:49:10;25.90;61.30
19050;DHT22;9657;45.940;12.840;2023-06-10T10:51:54;26.00;61.30
19050;DHT22;9657;45.940;12.840;2023-06-10T10:54:28;26.00;61.50
19050;DHT22;9657;45.940;12.840;2023-06-10T10:57:13;26.00;61.40
19050;DHT22;9657;45.940;12.840;2023-06-10T10:59:44;26.00;61.30
19050;DHT22;9657;45.940;12.840;2023-06-10T11:02:16;26.00;61.30
19050;DHT22;9657;45.940;12.840;2023-06-10T11:04:46;26.00;61.30
19050;DHT22;9657;45.940;12.840;2023-06-10T11:07:13;26.00;61.30
19050;DHT22;9657;45.940;12.840;2023-06-10T11:09:57;26.00;61.20
19050;DHT22;9657;45.940;12.840;2023-06-10T11:12:33;26.00;61.10
19050;DHT22;9657;45.940;12.840;2023-06-10T11:15:06;26.00;61.10
19050;DHT22;9657;45.940;12.840;2023-06-10T11:17:33;26.00;61.10
19050;DHT22;9657;45.940;12.840;2023-06-10T11:20:00;26.00;61.00
19050;DHT22;9657;45.940;12.840;2023-06-10T11:22:27;26.00;61.00
19050;DHT22;9657;45.940;12.840;2023-06-10T11:24:54;26.10;61.00
19050;DHT22;9657;45.940;12.840;2023-06-10T11:27:26;26.00;61.00
19050;DHT22;9657;45.940;12.840;2023-06-10T11:30:19;26.10;61.00
19050;DHT22;9657;45.940;12.840;2023-06-10T11:32:50;26.10;61.00
19050;DHT22;9657;45.940;12.840;2023-06-10T11:35:19;26.10;61.00
19050;DHT22;9657;45.940;12.840;2023-06-10T11:37:47;26.10;60.90
19050;DHT22;9657;45.940;12.840;2023-06-10T11:40:14;26.10;60.90
19050;DHT22;9657;45.940;12.840;2023-06-10T11:42:44;26.10;60.90
19050;DHT22;9657;45.940;12.840;2023-06-10T11:45:15;26.10;60.90
19050;DHT22;9657;45.940;12.840;2023-06-10T11:47:56;26.10;61.00
19050;DHT22;9657;45.940;12.840;2023-06-10T11:50:30;26.10;60.90
19050;DHT22;9657;45.940;12.840;2023-06-10T11:52:57;26.20;61.00
19050;DHT22;9657;45.940;12.840;2023-06-10T11:55:25;26.20;60.90
19050;DHT22;9657;45.940;12.840;2023-06-10T11:57:54;26.20;61.00
19050;DHT22;9657;45.940;12.840;2023-06-10T12:00:23;26.20;61.10
19050;DHT22;9657;45.940;12.840;2023-06-10T12:03:00;26.20;61.00
19050;DHT22;9657;45.940;12.840;2023-06-10T12:05:27;26.20;61.00
19050;DHT22;9657;45.940;12.840;2023-06-10T12:08:08;26.20;60.90
19050;DHT22;9657;45.940;12.840;2023-06-10T12:10:39;26.20;61.00
19050;DHT22;9657;45.940;12.840;2023-06-10T12:13:08;26.20;61.00
19050;DHT22;9657;45.940;12.840;2023-06-10T12:15:35;26.20;61.00
19050;DHT22;9657;45.940;12.840;2023-06-10T12:18:03;26.20;61.00
19050;DHT22;9657;45.940;12.840;2023-06-10T12:20:31;26.20;61.00
19050;DHT22;9657;45.940;12.840;2023-06-10T12:23:00;26.20;61.00
19050;DHT22;9657;45.940;12.840;2023-06-10T12:25:28;26.20;60.90
19050;DHT22;9657;45.940;12.840;2023-06-10T12:27:57;26.20;60.90
19050;DHT22;9657;45.940;12.840;2023-06-10T12:30:26;26.20;60.90
19050;DHT22;9657;45.940;12.840;2023-06-10T12:32:54;26.30;61.10
19050;DHT22;9657;45.940;12.840;2023-06-10T12:35:22;26.20;60.90
19050;DHT22;9657;45.940;12.840;2023-06-10T12:37:57;26.30;61.00
19050;DHT22;9657;45.940;12.840;2023-06-10T12:40:26;26.20;61.00
19050;DHT22;9657;45.940;12.840;2023-06-10T12:42:55;26.30;61.20
19050;DHT22;9657;45.940;12.840;2023-06-10T12:45:30;26.30;61.20
19050;DHT22;9657;45.940;12.840;2023-06-10T12:48:08;26.30;61.10
19050;DHT22;9657;45.940;12.840;2023-06-10T12:50:35;26.30;61.10
19050;DHT22;9657;45.940;12.840;2023-06-10T12:53:03;26.20;61.00
19050;DHT22;9657;45.940;12.840;2023-06-10T12:55:31;26.30;61.00
19050;DHT22;9657;45.940;12.840;2023-06-10T12:57:58;26.20;60.80
19050;DHT22;9657;45.940;12.840;2023-06-10T13:00:25;26.20;60.80
19050;DHT22;9657;45.940;12.840;2023-06-10T13:02:56;26.20;60.80
19050;DHT22;9657;45.940;12.840;2023-06-10T13:05:25;26.20;60.80
19050;DHT22;9657;45.940;12.840;2023-06-10T13:07:53;26.30;60.90
19050;DHT22;9657;45.940;12.840;2023-06-10T13:10:21;26.20;60.80
19050;DHT22;9657;45.940;12.840;2023-06-10T13:12:49;26.20;60.80
19050;DHT22;9657;45.940;12.840;2023-06-10T13:15:16;26.30;60.90
19050;DHT22;9657;45.940;12.840;2023-06-10T13:17:43;26.30;61.00
19050;DHT22;9657;45.940;12.840;2023-06-10T13:20:12;26.30;61.00
19050;DHT22;9657;45.940;12.840;2023-06-10T13:22:39;26.30;60.90
19050;DHT22;9657;45.940;12.840;2023-06-10T13:25:07;26.30;61.00
19050;DHT22;9657;45.940;12.840;2023-06-10T13:27:35;26.30;61.00
19050;DHT22;9657;45.940;12.840;2023-06-10T13:30:04;26.30;61.00
19050;DHT22;9657;45.940;12.840;2023-06-10T13:32:31;26.30;61.00
19050;DHT22;9657;45.940;12.840;2023-06-10T13:34:58;26.30;61.20
19050;DHT22;9657;45.940;12.840;2023-06-10T13:37:27;26.30;60.90
19050;DHT22;9657;45.940;12.840;2023-06-10T13:39:54;26.30;61.00
19050;DHT22;9657;45.940;12.840;2023-06-10T13:42:21;26.30;61.00
19050;DHT22;9657;45.940;12.840;2023-06-10T13:44:48;26.30;61.00
19050;DHT22;9657;45.940;12.840;2023-06-10T13:47:17;26.30;60.90
19050;DHT22;9657;45.940;12.840;2023-06-10T13:49:44;26.30;60.90
19050;DHT22;9657;45.940;12.840;2023-06-10T13:52:12;26.30;60.90
19050;DHT22;9657;45.940;12.840;2023-06-10T13:54:40;26.30;60.90
19050;DHT22;9657;45.940;12.840;2023-06-10T13:57:07;26.30;60.80
19050;DHT22;9657;45.940;12.840;2023-06-10T13:59:36;26.30;60.80
19050;DHT22;9657;45.940;12.840;2023-06-10T14:02:03;26.40;60.90
19050;DHT22;9657;45.940;12.840;2023-06-10T14:04:30;26.40;61.00
19050;DHT22;9657;45.940;12.840;2023-06-10T14:06:58;26.40;61.00
19050;DHT22;9657;45.940;12.840;2023-06-10T14:09:25;26.40;61.00
19050;DHT22;9657;45.940;12.840;2023-06-10T14:11:53;26.40;61.00
19050;DHT22;9657;45.940;12.840;2023-06-10T14:14:20;26.40;61.10
19050;DHT22;9657;45.940;12.840;2023-06-10T14:16:48;26.40;61.00
19050;DHT22;9657;45.940;12.840;2023-06-10T14:19:15;26.40;61.10
19050;DHT22;9657;45.940;12.840;2023-06-10T14:21:42;26.40;61.00
19050;DHT22;9657;45.940;12.840;2023-06-10T14:24:09;26.40;61.10
19050;DHT22;9657;45.940;12.840;2023-06-10T14:26:36;26.40;61.00
19050;DHT22;9657;45.940;12.840;2023-06-10T14:29:04;26.40;61.00
19050;DHT22;9657;45.940;12.840;2023-06-10T14:31:32;26.40;61.00
19050;DHT22;9657;45.940;12.840;2023-06-10T14:33:59;26.40;61.10
19050;DHT22;9657;45.940;12.840;2023-06-10T14:36:26;26.40;61.00
19050;DHT22;9657;45.940;12.840;2023-06-10T14:38:53;26.40;61.00
19050;DHT22;9657;45.940;12.840;2023-06-10T14:41:20;26.40;61.10
19050;DHT22;9657;45.940;12.840;2023-06-10T14:43:48;26.40;61.10
19050;DHT22;9657;45.940;12.840;2023-06-10T14:46:16;26.40;61.30
19050;DHT22;9657;45.940;12.840;2023-06-10T14:48:43;26.40;61.40
19050;DHT22;9657;45.940;12.840;2023-06-10T14:51:10;26.40;61.50
19050;DHT22;9657;45.940;12.840;2023-06-10T14:53:37;26.40;61.50
19050;DHT22;9657;45.940;12.840;2023-06-10T14:56:05;26.40;61.60
19050;DHT22;9657;45.940;12.840;2023-06-10T14:58:32;26.40;61.60
19050;DHT22;9657;45.940;12.840;2023-06-10T15:00:59;26.30;61.60
19050;DHT22;9657;45.940;12.840;2023-06-10T15:03:27;26.30;61.70
19050;DHT22;9657;45.940;12.840;2023-06-10T15:05:54;26.40;61.70
19050;DHT22;9657;45.940;12.840;2023-06-10T15:08:21;26.30;61.60
19050;DHT22;9657;45.940;12.840;2023-06-10T15:10:48;26.30;61.60
19050;DHT22;9657;45.940;12.840;2023-06-10T15:13:15;26.30;61.60
19050;DHT22;9657;45.940;12.840;2023-06-10T15:15:42;26.30;61.70
19050;DHT22;9657;45.940;12.840;2023-06-10T15:18:10;26.40;61.80
19050;DHT22;9657;45.940;12.840;2023-06-10T15:20:39;26.30;61.70
19050;DHT22;9657;45.940;12.840;2023-06-10T15:23:06;26.30;61.70
19050;DHT22;9657;45.940;12.840;2023-06-10T15:25:33;26.30;61.80
19050;DHT22;9657;45.940;12.840;2023-06-10T15:28:01;26.30;61.80
19050;DHT22;9657;45.940;12.840;2023-06-10T15:30:28;26.30;61.80
19050;DHT22;9657;45.940;12.840;2023-06-10T15:32:55;26.30;61.80
19050;DHT22;9657;45.940;12.840;2023-06-10T15:35:23;26.30;61.80
19050;DHT22;9657;45.940;12.840;2023-06-10T15:37:51;26.30;61.90
19050;DHT22;9657;45.940;12.840;2023-06-10T15:40:18;26.30;62.00